Bookmark and Share
Track history (hours):
 

Seabourn Quest

Last reported at 2014-Apr-22 16:00 UTC. Time now 2014-Apr-23 10:14 UTC.
Position N 35°48' E 017°54'.

Length 198 m; draft 6.7 m.

Type: Passenger vessel. MMSI: 311038900.

Wind from 060 at 13 knots

Barometer 1010.0 mb
Air temperature 21.0 ° C
Visibility: greater than 5.4 NM
Water temperature 15.0 ° C

NotesDate/timePositionNaut miles runAvg speedWind from/ knotsBaromVisibWave heightAir tempDewpointWater temp
2014-Apr-22 16:00N 35°48' E 017°54'15113.7 060 / 131010.0 5.4 21.0 15.0
2014-Apr-22 05:00N 35°42' E 021°00'13712.6 variable / 51013.010.8 18.8 15.0
2014-Apr-21 18:06N 35°43' E 023°49'713.0
2014-Apr-21 17:33N 35°41' E 023°58'1312.8
2014-Apr-21 16:33N 35°38' E 024°13'2 3.2
2014-Apr-21 16:00N 35°36' E 024°12'1227.3 140 / 191013.010.8 22.0 12.6
2014-Apr-21 15:33N 35°28' E 024°24'7 3.5
2014-Apr-21 13:29N 35°22' E 024°29'0 0.0
2014-Apr-21 05:29N 35°22' E 024°29'0 0.1
2014-Apr-21 04:34N 35°22' E 024°29'6 6.3
2014-Apr-21 03:33N 35°29' E 024°31'1312.8
2014-Apr-21 02:33N 35°41' E 024°33'1313.0
2014-Apr-21 01:34N 35°54' E 024°36'1313.1
2014-Apr-21 00:33N 36°07' E 024°39'1313.2
2014-Apr-20 23:33N 36°20' E 024°41'1313.2
2014-Apr-20 22:33N 36°33' E 024°44'1313.0
2014-Apr-20 21:33N 36°46' E 024°48'9 8.3
2014-Apr-20 20:26N 36°54' E 024°52'8 7.9
2014-Apr-20 19:29N 37°01' E 024°55'8 8.1
2014-Apr-20 18:28N 37°09' E 024°60'7 8.1
2014-Apr-20 17:33N 37°15' E 025°04'8 7.9
2014-Apr-20 16:33N 37°22' E 025°08'7 6.6
2014-Apr-20 15:33N 37°27' E 025°14'4 4.4
2014-Apr-20 14:32N 37°27' E 025°19'0 0.0
2014-Apr-20 13:33N 37°27' E 025°19'0 0.0
2014-Apr-20 12:32N 37°27' E 025°19'0 0.0
2014-Apr-20 11:32N 37°27' E 025°19'0 0.0
2014-Apr-20 10:30N 37°27' E 025°19'0 0.0
2014-Apr-20 09:33N 37°27' E 025°19'0 0.0
2014-Apr-20 08:33N 37°27' E 025°19'0 0.0
2014-Apr-20 07:33N 37°27' E 025°19'0 0.0
2014-Apr-20 06:33N 37°27' E 025°19'0 0.0
2014-Apr-20 05:33N 37°27' E 025°19'3 5.6
2014-Apr-20 05:00N 37°24' E 025°18'3 7.0 220 / 131012.010.8 16.1 11.9
2014-Apr-20 04:33N 37°27' E 025°19'3 2.7
2014-Apr-20 03:33N 37°29' E 025°18'1212.5
2014-Apr-20 02:33N 37°39' E 025°27'13 3.1
2014-Apr-19 22:18N 37°46' E 025°41'28 4.4
2014-Apr-19 16:00N 38°06' E 026°06'13 1.2 230 / 241011.010.8 16.6 11.8
2014-Apr-19 05:00N 38°18' E 026°12'40 1.3 230 / 151010.0 2.2 16.0 17.0
2014-Apr-17 22:26N 37°44' E 025°44'1413.3
2014-Apr-17 21:22N 37°37' E 025°29'1129.8
2014-Apr-17 21:00N 37°30' E 025°18'1 3.0 160 / 41006.510.8 13.6 11.4
2014-Apr-17 20:32N 37°31' E 025°17'1312.9
2014-Apr-17 19:33N 37°31' E 025°01'1313.2
2014-Apr-17 18:33N 37°32' E 024°44'1413.4
2014-Apr-17 17:30N 37°31' E 024°27'1426.7
2014-Apr-17 17:00N 37°24' E 024°12'715.2 150 / 51006.0 5.4 13.2 12.0
2014-Apr-17 16:33N 37°31' E 024°11'2013.3
2014-Apr-17 15:04N 37°38' E 023°48'612.7
2014-Apr-17 14:34N 37°42' E 023°41'1313.1
2014-Apr-17 13:33N 37°54' E 023°37'2 2.4
2014-Apr-17 12:32N 37°56' E 023°38'0 0.0
2014-Apr-17 11:30N 37°56' E 023°38'0 0.0
2014-Apr-17 10:33N 37°56' E 023°38'0 0.0
2014-Apr-17 09:31N 37°56' E 023°38'0 0.0
2014-Apr-17 08:33N 37°56' E 023°38'0 0.0
2014-Apr-17 07:33N 37°56' E 023°38'0 0.0
2014-Apr-17 06:33N 37°56' E 023°38'0 0.0
2014-Apr-17 05:33N 37°56' E 023°38'0 0.0
2014-Apr-17 04:33N 37°56' E 023°38'1 0.6
2014-Apr-17 03:33N 37°56' E 023°37'4 4.0
2014-Apr-17 02:33N 37°52' E 023°37'1312.6
2014-Apr-17 01:33N 37°41' E 023°45'34 8.4
2014-Apr-16 21:29N 37°13' E 024°09'3 5.7
2014-Apr-16 21:00N 37°12' E 024°12'12 8.3 200 / 251011.010.8 16.6 11.7
2014-Apr-16 19:31N 37°16' E 024°27'7 7.4
2014-Apr-16 18:32N 37°17' E 024°36'7 7.6
2014-Apr-16 17:33N 37°19' E 024°45'7 7.1
2014-Apr-16 16:31N 37°20' E 024°54'6 6.7
2014-Apr-16 15:33N 37°23' E 025°01'5 4.9
2014-Apr-16 14:31N 37°26' E 024°57'0 0.0
2014-Apr-16 13:29N 37°26' E 024°57'0 0.0
2014-Apr-16 12:31N 37°26' E 024°57'0 0.0
2014-Apr-16 11:31N 37°26' E 024°57'0 0.0
2014-Apr-16 10:32N 37°26' E 024°57'0 0.0
2014-Apr-16 09:32N 37°26' E 024°57'0 0.0
2014-Apr-16 08:33N 37°26' E 024°57'0 0.0
2014-Apr-16 07:33N 37°26' E 024°57'0 0.0
2014-Apr-16 06:30N 37°26' E 024°57'0 0.0
2014-Apr-16 05:33N 37°26' E 024°57'0 0.0
2014-Apr-16 04:31N 37°26' E 024°57'6 6.0
2014-Apr-16 03:33N 37°24' E 025°03'1312.5
2014-Apr-16 02:33N 37°20' E 025°18'1613.0
2014-Apr-16 01:19N 37°19' E 025°38'1013.1
2014-Apr-16 00:33N 37°19' E 025°51'1313.2
2014-Apr-15 23:32N 37°18' E 026°08'1211.7
2014-Apr-15 22:29N 37°13' E 026°22'7 7.9
2014-Apr-15 21:33N 37°14' E 026°31'25384546.1
2014-Apr-15 21:00N 37°12' W 026°36'25483205.6 200 / 141013.510.8 17.1 12.9
2014-Apr-15 20:12N 37°14' E 026°44'12 7.1
2014-Apr-15 18:30N 37°09' E 026°58'47 2.2
2014-Apr-14 21:00N 36°30' E 027°30'52 2.2 variable / 31014.010.8 17.1 12.9
2014-Apr-13 21:30N 35°49' E 026°51'26105149.0
2014-Apr-13 21:00N 35°48' W 026°48'26035973.1 140 / 71015.0 0.517.0 18.0
2014-Apr-13 20:33N 35°42' E 026°40'1212.1
2014-Apr-13 19:33N 35°36' E 026°26'1412.4
2014-Apr-13 18:26N 35°33' E 026°10'1212.3
2014-Apr-13 17:28N 35°30' E 025°56'1312.4
2014-Apr-13 16:27N 35°27' E 025°41'510.7
2014-Apr-13 16:00N 35°24' E 025°36'915.3 140 / 101014.0 5.4 17.7 12.7
2014-Apr-13 15:25N 35°24' E 025°25'1412.1
2014-Apr-13 14:17N 35°21' E 025°09'99 5.7
2014-Apr-12 21:00N 35°48' E 023°12'   260 / 101018.510.8 17.3 12.2

Dump ship's entire track history

sailing weather and tide predictions

Seabourn Quest — C6YZ5 — position and weather